Flowery Branch, GA (30542)

05:42 AM EST on ianuarie 19, 2017 (GMT -0500)
Spring Lake | | Change Station

Elev 1780 ft 34.18 °N, 83.95 °W | Updated 16 seconds ago

Cer parţial noros
Cer parţial noros
49.5 °F
Feels Like 50 °F
N
0.0
Vânt variabil Vânt from vest
Gusts 0.0 mph

astăzi
High -- | Low -- °F
--% Chance of Precip.
Ieri
High -- | Low -- °F
Precip. -- inch
Presiunea 30.02 inch
Vizibilitatea 10.0 mile
Nori Cer senin
Vânt rece 50 °F
Punctul de rouă 45 °F
Umiditatea 85%
Precipitaţii 0.00 inch
Adâncimea zăpezii Not available.
7:40 AM 5:53 PM
Lună în descreştere, 55% visible
METAR KGVL 190953Z AUTO 26003KT 10SM CLR 10/06 A3004 RMK AO2 SLP165 T01000056
Presiunea 30.02 inch
Vizibilitatea 10.0 mile
Nori Cer senin
Vânt rece 50 °F
Punctul de rouă 45 °F
Umiditatea 85%
Precipitaţii 0.00 inch
Adâncimea zăpezii Not available.
7:40 AM 5:53 PM
Lună în descreştere, 55% visible
METAR KGVL 190953Z AUTO 26003KT 10SM CLR 10/06 A3004 RMK AO2 SLP165 T01000056

Get Your Daily Forecast Email!

Thanks for signing up!

Be on the lookout for a verification email in your inbox.

You'll start receiving the daily forecast at 8 AM.

×

10-Day Weather Forecast

Almanac

Astronomie

Jan. 19, 2017 Răsărit Apus
Timpul Actual
Crepusculul Civil
Crepusculul nautic
Răsărit Astronomic
Luna
Durata zilei lumină
Lungimea zilei
Tomorrow will be .
, % of the Moon is Illuminated

Extremele de azi

State Highs State Lows

Community

WunderPhotos

Upload Photos

1,962,540 photos uploaded!

WunderBlog® & News

Nearby

Calitatea aerului

  Calitatea aerului Index de calitate a aerului Poluat
Not available.

Adâncimea zapezii

Station Depth Elevation

Earthquake Activity

Oraş Distance Mag. Time & Date
Minimum magnitude displayed is 2.5.

Coastal Water Temperatures

Locul Temperatura

Stations

Nearby Weather Stations

Locaţia staţiei Temp Vânt rece Punctul de rouă Umiditatea Vânt Precip. Elev Actualizare Type
                   

Watches & Warnings

There are currently no watches in effect.